»·PEaware :: SKW5332 KRNO-KSFO

SKW5332 :: KRNO-KSFO

FLIGHT INFORMATION

Flight Status: Arrived
Operator:
SkyWest Airlines
More flights by this operator :: More flights under this callsign
Pilot: Aundrey S. (17120)
Aircraft: CANADAIR CL-600 CRJ-200
(CRJ2)
More flights by this aircraft type
Origin: KRNO Reno/Tahoe Intl
United States
Destination: KSFO San Francisco Intl
United States
More flights between these airports :: More routes between these airports
Route: PVINE3 CRDDZ LEGGS BDEGA3
File this flight plan on PilotEdge
Remarks:
Altitude:
(Current/Filed)
26,000ft
Speed:
(Current/Filed)
420kts
Departed: 08-Sep-19 07:37 PM
Arrived: 08-Sep-19 08:24 PM
Distance/Time
Traveled:
167nm/0:47
Distance/Time
To Go:
Arrived

Flight Plot

Page will automatically refresh every two minutes.

Flight plan parsing failed; only flown route is shown


Map Options




Map Legend


Flown Route
Filed Route
Departure Airport
Arrival Airport
Navaid (VOR, NDB)
Fix

Horizontal Profiles

Position Reports

Time Latitude Longitude Heading Altitude Ground
Speed
08-Sep-19 19:02 39.506601 -119.773144 342 4411ft 0kts
08-Sep-19 19:03 39.506601 -119.773144 342 4411ft 0kts
08-Sep-19 19:04 39.506601 -119.773144 342 4411ft 0kts
08-Sep-19 19:05 39.506601 -119.773144 342 4411ft 0kts
08-Sep-19 19:07 39.506601 -119.773144 342 4411ft 0kts
08-Sep-19 19:08 39.506601 -119.773144 342 4411ft 0kts
08-Sep-19 19:09 39.506601 -119.773144 342 4411ft 0kts
08-Sep-19 19:10 39.506601 -119.773144 342 4411ft 0kts
08-Sep-19 19:11 39.506601 -119.773144 342 4411ft 0kts
08-Sep-19 19:12 39.506601 -119.773144 342 4411ft 0kts
08-Sep-19 19:13 39.506601 -119.773144 342 4411ft 0kts
08-Sep-19 19:14 39.506601 -119.773144 342 4411ft 0kts
08-Sep-19 19:15 39.506601 -119.773144 342 4411ft 0kts
08-Sep-19 19:16 39.506601 -119.773144 342 4411ft 0kts
08-Sep-19 19:17 39.506601 -119.773144 342 4411ft 0kts
08-Sep-19 19:18 39.506601 -119.773144 342 4411ft 0kts
08-Sep-19 19:19 39.506601 -119.773144 342 4411ft 0kts
08-Sep-19 19:20 39.506601 -119.773144 342 4411ft 0kts
08-Sep-19 19:21 39.506601 -119.773144 342 4411ft 0kts
08-Sep-19 19:22 39.506601 -119.773144 342 4411ft 0kts
08-Sep-19 19:23 39.506601 -119.773144 342 4411ft 0kts
08-Sep-19 19:24 39.506601 -119.773144 342 4411ft 0kts
08-Sep-19 19:25 39.506601 -119.773144 342 4411ft 0kts
08-Sep-19 19:25 39.506601 -119.773144 342 4411ft 0kts
08-Sep-19 19:27 39.506464 -119.773089 342 4411ft 2kts
08-Sep-19 19:28 39.505934 -119.773134 67 4411ft 2kts
08-Sep-19 19:28 39.505914 -119.773276 90 4411ft 0kts
08-Sep-19 19:29 39.505914 -119.773276 90 4411ft 0kts
08-Sep-19 19:30 39.505913 -119.772373 89 4410ft 10kts
08-Sep-19 19:32 39.501963 -119.771511 180 4408ft 19kts
08-Sep-19 19:32 39.497433 -119.771526 180 4408ft 18kts
08-Sep-19 19:33 39.492431 -119.771535 180 4408ft 19kts
08-Sep-19 19:34 39.487470 -119.771534 180 4410ft 16kts
08-Sep-19 19:35 39.483777 -119.771046 99 4417ft 7kts
08-Sep-19 19:36 39.487262 -119.769304 359 4410ft 72kts
08-Sep-19 19:37 39.529277 -119.768609 357 5076ft 185kts
08-Sep-19 19:38 39.589156 -119.770834 332 7280ft 246kts
08-Sep-19 19:39 39.630314 -119.849790 297 10477ft 293kts
08-Sep-19 19:40 39.664140 -119.951190 269 13823ft 339kts
08-Sep-19 19:41 39.637225 -120.066448 253 18627ft 337kts
08-Sep-19 19:42 39.602740 -120.187592 252 18923ft 358kts
08-Sep-19 19:43 39.568055 -120.307729 252 20257ft 357kts
08-Sep-19 19:44 39.533925 -120.425452 253 24234ft 359kts
08-Sep-19 19:45 39.497064 -120.552083 252 25928ft 403kts
08-Sep-19 19:46 39.455027 -120.695557 252 25997ft 438kts
08-Sep-19 19:47 39.411430 -120.843611 252 26336ft 439kts
08-Sep-19 19:48 39.367843 -120.990823 251 26686ft 439kts
08-Sep-19 19:49 39.312792 -121.131646 235 26709ft 448kts
08-Sep-19 19:50 39.232517 -121.255795 234 26785ft 448kts
08-Sep-19 19:51 39.152009 -121.379007 234 26792ft 449kts
08-Sep-19 19:52 39.071308 -121.502055 234 26830ft 449kts
08-Sep-19 19:53 38.990337 -121.625011 234 26854ft 449kts
08-Sep-19 19:54 38.909383 -121.747464 234 26993ft 448kts
08-Sep-19 19:55 38.828192 -121.869813 234 26917ft 448kts
08-Sep-19 19:56 38.748453 -121.989462 234 25900ft 418kts
08-Sep-19 19:57 38.677918 -122.094944 235 25899ft 365kts
08-Sep-19 19:58 38.610620 -122.195384 235 25911ft 378kts
08-Sep-19 19:59 38.540512 -122.299571 235 25630ft 387kts
08-Sep-19 20:00 38.471219 -122.402187 235 24676ft 372kts
08-Sep-19 20:01 38.405139 -122.500353 235 23469ft 359kts
08-Sep-19 20:02 38.340284 -122.596581 235 22124ft 354kts
08-Sep-19 20:03 38.276675 -122.690670 234 20817ft 350kts
08-Sep-19 20:04 38.195554 -122.755029 182 19542ft 382kts
08-Sep-19 20:05 38.090282 -122.728367 172 18273ft 384kts
08-Sep-19 20:06 37.987072 -122.698592 171 16687ft 374kts
08-Sep-19 20:07 37.889494 -122.661308 144 15006ft 366kts
08-Sep-19 20:08 37.812800 -122.581843 141 12918ft 349kts
08-Sep-19 20:09 37.739504 -122.505097 139 10998ft 328kts
08-Sep-19 20:10 37.675977 -122.436333 140 10970ft 289kts
08-Sep-19 20:11 37.613545 -122.371639 153 10953ft 278kts
08-Sep-19 20:12 37.547088 -122.326286 153 9816ft 264kts
08-Sep-19 20:13 37.487528 -122.280267 120 8194ft 247kts
08-Sep-19 20:14 37.451970 -122.199629 118 6658ft 275kts
08-Sep-19 20:15 37.436877 -122.121598 46 5001ft 212kts
08-Sep-19 20:16 37.481712 -122.130455 323 3506ft 177kts
08-Sep-19 20:17 37.522612 -122.165731 322 3081ft 187kts
08-Sep-19 20:18 37.550287 -122.212533 294 2630ft 151kts
08-Sep-19 20:19 37.570281 -122.259942 296 1794ft 153kts
08-Sep-19 20:20 37.589102 -122.304559 294 991ft 122kts
08-Sep-19 20:21 37.604630 -122.341357 294 383ft 124kts
08-Sep-19 20:22 37.617192 -122.371589 298 12ft 52kts
08-Sep-19 20:23 37.618542 -122.378799 194 26ft 11kts
08-Sep-19 20:24 37.615137 -122.380622 207 28ft 21kts
08-Sep-19 20:25 37.613174 -122.383318 261 28ft 0kts

Navigation Log

Ident Type
Flight plan parsing failed, navigation log unavailable